sensor_id;sensor_type;location;lat;lon;timestamp;P1;durP1;ratioP1;P2;durP2;ratioP2
29044;SDS011;16133;49.486;12.176;2023-01-16T00:00:27;6.10;;;2.88;;
29044;SDS011;16133;49.486;12.176;2023-01-16T00:02:53;6.00;;;2.90;;
29044;SDS011;16133;49.486;12.176;2023-01-16T00:05:18;6.07;;;2.60;;
29044;SDS011;16133;49.486;12.176;2023-01-16T00:07:44;4.47;;;2.47;;
29044;SDS011;16133;49.486;12.176;2023-01-16T00:10:10;5.88;;;2.63;;
29044;SDS011;16133;49.486;12.176;2023-01-16T00:12:35;4.93;;;2.35;;
29044;SDS011;16133;49.486;12.176;2023-01-16T00:15:00;6.57;;;2.50;;
29044;SDS011;16133;49.486;12.176;2023-01-16T00:17:26;3.83;;;2.10;;
29044;SDS011;16133;49.486;12.176;2023-01-16T00:19:51;5.50;;;2.10;;
29044;SDS011;16133;49.486;12.176;2023-01-16T00:22:17;3.50;;;2.00;;
29044;SDS011;16133;49.486;12.176;2023-01-16T00:24:42;3.35;;;1.98;;
29044;SDS011;16133;49.486;12.176;2023-01-16T00:27:08;2.90;;;1.70;;
29044;SDS011;16133;49.486;12.176;2023-01-16T00:29:33;5.95;;;2.63;;
29044;SDS011;16133;49.486;12.176;2023-01-16T00:31:59;3.78;;;1.75;;
29044;SDS011;16133;49.486;12.176;2023-01-16T00:34:25;4.55;;;1.95;;
29044;SDS011;16133;49.486;12.176;2023-01-16T00:36:50;3.90;;;1.90;;
29044;SDS011;16133;49.486;12.176;2023-01-16T00:39:15;3.70;;;2.10;;
29044;SDS011;16133;49.486;12.176;2023-01-16T00:41:41;6.45;;;3.13;;
29044;SDS011;16133;49.486;12.176;2023-01-16T00:44:06;10.57;;;3.60;;
29044;SDS011;16133;49.486;12.176;2023-01-16T00:46:31;9.07;;;3.40;;
29044;SDS011;16133;49.486;12.176;2023-01-16T00:48:57;8.80;;;3.08;;
29044;SDS011;16133;49.486;12.176;2023-01-16T00:51:22;5.97;;;2.78;;
29044;SDS011;16133;49.486;12.176;2023-01-16T00:53:48;6.70;;;3.33;;
29044;SDS011;16133;49.486;12.176;2023-01-16T00:56:13;3.45;;;2.10;;
29044;SDS011;16133;49.486;12.176;2023-01-16T00:58:38;7.65;;;3.28;;
29044;SDS011;16133;49.486;12.176;2023-01-16T01:01:04;5.32;;;2.10;;
29044;SDS011;16133;49.486;12.176;2023-01-16T01:03:30;6.78;;;2.10;;
29044;SDS011;16133;49.486;12.176;2023-01-16T01:05:56;3.92;;;2.10;;
29044;SDS011;16133;49.486;12.176;2023-01-16T01:08:21;4.57;;;2.05;;
29044;SDS011;16133;49.486;12.176;2023-01-16T01:10:47;2.92;;;1.77;;
29044;SDS011;16133;49.486;12.176;2023-01-16T01:13:13;3.78;;;1.92;;
29044;SDS011;16133;49.486;12.176;2023-01-16T01:15:38;4.30;;;1.83;;
29044;SDS011;16133;49.486;12.176;2023-01-16T01:18:04;2.50;;;1.60;;
29044;SDS011;16133;49.486;12.176;2023-01-16T01:20:29;2.80;;;1.35;;
29044;SDS011;16133;49.486;12.176;2023-01-16T01:22:55;3.53;;;1.67;;
29044;SDS011;16133;49.486;12.176;2023-01-16T01:25:20;2.88;;;1.45;;
29044;SDS011;16133;49.486;12.176;2023-01-16T01:27:45;4.00;;;1.67;;
29044;SDS011;16133;49.486;12.176;2023-01-16T01:30:11;3.78;;;1.80;;
29044;SDS011;16133;49.486;12.176;2023-01-16T01:32:36;4.22;;;1.77;;
29044;SDS011;16133;49.486;12.176;2023-01-16T01:35:03;5.88;;;1.63;;
29044;SDS011;16133;49.486;12.176;2023-01-16T01:37:29;4.10;;;1.63;;
29044;SDS011;16133;49.486;12.176;2023-01-16T01:39:55;3.92;;;2.20;;
29044;SDS011;16133;49.486;12.176;2023-01-16T01:42:20;3.78;;;1.52;;
29044;SDS011;16133;49.486;12.176;2023-01-16T01:47:44;2.92;;;1.83;;
29044;SDS011;16133;49.486;12.176;2023-01-16T01:50:16;3.22;;;1.23;;
29044;SDS011;16133;49.486;12.176;2023-01-16T01:55:47;5.47;;;1.52;;
29044;SDS011;16133;49.486;12.176;2023-01-16T01:58:14;6.32;;;1.40;;
29044;SDS011;16133;49.486;12.176;2023-01-16T02:00:47;1.92;;;1.13;;
29044;SDS011;16133;49.486;12.176;2023-01-16T02:03:17;1.67;;;0.95;;
29044;SDS011;16133;49.486;12.176;2023-01-16T02:05:50;2.28;;;1.10;;
29044;SDS011;16133;49.486;12.176;2023-01-16T02:08:19;3.42;;;1.02;;
29044;SDS011;16133;49.486;12.176;2023-01-16T02:10:50;4.13;;;1.45;;
29044;SDS011;16133;49.486;12.176;2023-01-16T02:13:21;1.70;;;0.90;;
29044;SDS011;16133;49.486;12.176;2023-01-16T02:15:46;1.95;;;0.80;;
29044;SDS011;16133;49.486;12.176;2023-01-16T02:18:30;4.15;;;0.90;;
29044;SDS011;16133;49.486;12.176;2023-01-16T02:24:25;4.45;;;1.38;;
29044;SDS011;16133;49.486;12.176;2023-01-16T02:33:16;2.83;;;1.10;;
29044;SDS011;16133;49.486;12.176;2023-01-16T02:49:40;4.50;;;1.92;;
29044;SDS011;16133;49.486;12.176;2023-01-16T02:52:22;4.05;;;1.05;;
29044;SDS011;16133;49.486;12.176;2023-01-16T02:54:58;3.40;;;2.05;;
29044;SDS011;16133;49.486;12.176;2023-01-16T02:58:03;4.95;;;1.35;;
29044;SDS011;16133;49.486;12.176;2023-01-16T03:00:25;3.10;;;0.82;;
29044;SDS011;16133;49.486;12.176;2023-01-16T03:02:52;4.68;;;0.90;;
29044;SDS011;16133;49.486;12.176;2023-01-16T03:05:18;3.05;;;0.95;;
29044;SDS011;16133;49.486;12.176;2023-01-16T03:18:50;2.72;;;0.90;;
29044;SDS011;16133;49.486;12.176;2023-01-16T03:24:52;1.38;;;0.77;;
29044;SDS011;16133;49.486;12.176;2023-01-16T03:27:26;1.90;;;0.98;;
29044;SDS011;16133;49.486;12.176;2023-01-16T03:29:58;1.52;;;0.73;;
29044;SDS011;16133;49.486;12.176;2023-01-16T03:35:25;2.97;;;0.70;;
29044;SDS011;16133;49.486;12.176;2023-01-16T03:37:56;2.92;;;1.40;;
29044;SDS011;16133;49.486;12.176;2023-01-16T03:40:27;4.28;;;0.80;;
29044;SDS011;16133;49.486;12.176;2023-01-16T03:46:21;5.43;;;1.13;;
29044;SDS011;16133;49.486;12.176;2023-01-16T03:49:00;3.58;;;0.93;;
29044;SDS011;16133;49.486;12.176;2023-01-16T03:51:32;2.28;;;1.20;;
29044;SDS011;16133;49.486;12.176;2023-01-16T03:56:57;3.63;;;1.17;;
29044;SDS011;16133;49.486;12.176;2023-01-16T03:59:24;4.35;;;1.00;;
29044;SDS011;16133;49.486;12.176;2023-01-16T04:02:11;1.83;;;0.80;;
29044;SDS011;16133;49.486;12.176;2023-01-16T04:04:41;2.25;;;0.90;;
29044;SDS011;16133;49.486;12.176;2023-01-16T04:07:13;4.05;;;0.65;;
29044;SDS011;16133;49.486;12.176;2023-01-16T04:09:46;2.38;;;0.90;;
29044;SDS011;16133;49.486;12.176;2023-01-16T04:12:19;3.20;;;1.42;;
29044;SDS011;16133;49.486;12.176;2023-01-16T04:14:48;2.75;;;1.38;;
29044;SDS011;16133;49.486;12.176;2023-01-16T04:17:20;3.50;;;1.83;;
29044;SDS011;16133;49.486;12.176;2023-01-16T04:19:46;2.40;;;1.15;;
29044;SDS011;16133;49.486;12.176;2023-01-16T04:22:18;7.00;;;1.10;;
29044;SDS011;16133;49.486;12.176;2023-01-16T04:24:45;2.00;;;0.95;;
29044;SDS011;16133;49.486;12.176;2023-01-16T04:27:10;2.33;;;0.98;;
29044;SDS011;16133;49.486;12.176;2023-01-16T04:29:36;2.00;;;0.98;;
29044;SDS011;16133;49.486;12.176;2023-01-16T04:32:01;2.40;;;1.00;;
29044;SDS011;16133;49.486;12.176;2023-01-16T04:34:26;5.82;;;1.25;;
29044;SDS011;16133;49.486;12.176;2023-01-16T04:36:52;3.45;;;1.60;;
29044;SDS011;16133;49.486;12.176;2023-01-16T04:39:17;2.80;;;1.15;;
29044;SDS011;16133;49.486;12.176;2023-01-16T04:41:43;4.47;;;1.42;;
29044;SDS011;16133;49.486;12.176;2023-01-16T04:44:11;2.03;;;1.00;;
29044;SDS011;16133;49.486;12.176;2023-01-16T04:46:38;4.47;;;1.00;;
29044;SDS011;16133;49.486;12.176;2023-01-16T04:49:03;6.70;;;1.20;;
29044;SDS011;16133;49.486;12.176;2023-01-16T04:51:29;3.03;;;1.40;;
29044;SDS011;16133;49.486;12.176;2023-01-16T04:53:55;2.05;;;0.75;;
29044;SDS011;16133;49.486;12.176;2023-01-16T04:56:21;3.72;;;0.80;;
29044;SDS011;16133;49.486;12.176;2023-01-16T04:58:47;2.60;;;1.00;;
29044;SDS011;16133;49.486;12.176;2023-01-16T05:01:12;3.80;;;1.08;;
29044;SDS011;16133;49.486;12.176;2023-01-16T05:03:38;4.18;;;1.33;;
29044;SDS011;16133;49.486;12.176;2023-01-16T05:06:03;1.58;;;1.00;;
29044;SDS011;16133;49.486;12.176;2023-01-16T05:08:28;1.98;;;1.13;;
29044;SDS011;16133;49.486;12.176;2023-01-16T05:10:54;2.97;;;0.98;;
29044;SDS011;16133;49.486;12.176;2023-01-16T05:13:20;1.67;;;1.10;;
29044;SDS011;16133;49.486;12.176;2023-01-16T05:15:46;3.75;;;1.33;;
29044;SDS011;16133;49.486;12.176;2023-01-16T05:18:12;7.00;;;2.78;;
29044;SDS011;16133;49.486;12.176;2023-01-16T05:20:38;5.88;;;2.67;;
29044;SDS011;16133;49.486;12.176;2023-01-16T05:23:04;5.28;;;1.83;;
29044;SDS011;16133;49.486;12.176;2023-01-16T05:25:30;2.75;;;1.40;;
29044;SDS011;16133;49.486;12.176;2023-01-16T05:27:55;5.63;;;2.40;;
29044;SDS011;16133;49.486;12.176;2023-01-16T05:30:21;2.53;;;1.40;;
29044;SDS011;16133;49.486;12.176;2023-01-16T05:32:46;4.57;;;1.30;;
29044;SDS011;16133;49.486;12.176;2023-01-16T05:35:12;13.70;;;4.13;;
29044;SDS011;16133;49.486;12.176;2023-01-16T05:37:38;26.95;;;9.75;;
29044;SDS011;16133;49.486;12.176;2023-01-16T05:40:03;38.65;;;11.93;;
29044;SDS011;16133;49.486;12.176;2023-01-16T05:42:29;31.45;;;12.02;;
29044;SDS011;16133;49.486;12.176;2023-01-16T05:44:55;27.52;;;9.38;;
29044;SDS011;16133;49.486;12.176;2023-01-16T05:47:20;18.20;;;5.97;;
29044;SDS011;16133;49.486;12.176;2023-01-16T05:49:46;11.85;;;4.40;;
29044;SDS011;16133;49.486;12.176;2023-01-16T05:52:12;13.02;;;5.00;;
29044;SDS011;16133;49.486;12.176;2023-01-16T05:54:38;10.70;;;5.72;;
29044;SDS011;16133;49.486;12.176;2023-01-16T05:57:03;14.55;;;5.65;;
29044;SDS011;16133;49.486;12.176;2023-01-16T06:02:18;11.93;;;4.45;;
29044;SDS011;16133;49.486;12.176;2023-01-16T06:04:44;13.38;;;5.20;;
29044;SDS011;16133;49.486;12.176;2023-01-16T06:07:10;15.68;;;5.63;;
29044;SDS011;16133;49.486;12.176;2023-01-16T06:09:36;12.40;;;5.00;;
29044;SDS011;16133;49.486;12.176;2023-01-16T06:12:01;10.35;;;5.03;;
29044;SDS011;16133;49.486;12.176;2023-01-16T06:14:26;9.70;;;4.85;;
29044;SDS011;16133;49.486;12.176;2023-01-16T06:16:52;8.88;;;3.60;;
29044;SDS011;16133;49.486;12.176;2023-01-16T06:19:17;7.15;;;3.33;;
29044;SDS011;16133;49.486;12.176;2023-01-16T06:21:42;11.30;;;3.17;;
29044;SDS011;16133;49.486;12.176;2023-01-16T06:24:08;6.80;;;2.80;;
29044;SDS011;16133;49.486;12.176;2023-01-16T06:26:34;6.40;;;3.10;;
29044;SDS011;16133;49.486;12.176;2023-01-16T06:28:59;4.75;;;2.72;;
29044;SDS011;16133;49.486;12.176;2023-01-16T06:31:25;5.82;;;2.90;;
29044;SDS011;16133;49.486;12.176;2023-01-16T06:33:50;11.32;;;3.97;;
29044;SDS011;16133;49.486;12.176;2023-01-16T06:36:15;13.30;;;5.82;;
29044;SDS011;16133;49.486;12.176;2023-01-16T06:38:41;16.95;;;7.88;;
29044;SDS011;16133;49.486;12.176;2023-01-16T06:41:06;14.27;;;7.05;;
29044;SDS011;16133;49.486;12.176;2023-01-16T06:43:31;17.17;;;7.95;;
29044;SDS011;16133;49.486;12.176;2023-01-16T06:45:57;15.95;;;6.72;;
29044;SDS011;16133;49.486;12.176;2023-01-16T06:48:23;12.07;;;4.60;;
29044;SDS011;16133;49.486;12.176;2023-01-16T06:50:48;9.25;;;3.22;;
29044;SDS011;16133;49.486;12.176;2023-01-16T06:53:14;8.68;;;3.17;;
29044;SDS011;16133;49.486;12.176;2023-01-16T06:55:40;4.50;;;2.35;;
29044;SDS011;16133;49.486;12.176;2023-01-16T06:58:07;3.75;;;2.00;;
29044;SDS011;16133;49.486;12.176;2023-01-16T07:00:34;6.07;;;1.80;;
29044;SDS011;16133;49.486;12.176;2023-01-16T07:02:59;2.85;;;1.85;;
29044;SDS011;16133;49.486;12.176;2023-01-16T07:05:26;3.45;;;1.65;;
29044;SDS011;16133;49.486;12.176;2023-01-16T07:07:53;8.10;;;1.85;;
29044;SDS011;16133;49.486;12.176;2023-01-16T07:10:19;2.83;;;1.60;;
29044;SDS011;16133;49.486;12.176;2023-01-16T07:12:45;2.20;;;1.33;;
29044;SDS011;16133;49.486;12.176;2023-01-16T07:15:12;2.78;;;1.50;;
29044;SDS011;16133;49.486;12.176;2023-01-16T07:17:55;2.25;;;1.33;;
29044;SDS011;16133;49.486;12.176;2023-01-16T07:21:03;5.03;;;1.80;;
29044;SDS011;16133;49.486;12.176;2023-01-16T07:23:52;4.25;;;2.00;;
29044;SDS011;16133;49.486;12.176;2023-01-16T07:26:22;6.78;;;3.00;;
29044;SDS011;16133;49.486;12.176;2023-01-16T07:28:48;3.28;;;2.13;;
29044;SDS011;16133;49.486;12.176;2023-01-16T07:31:15;3.50;;;2.00;;
29044;SDS011;16133;49.486;12.176;2023-01-16T07:33:41;3.65;;;1.50;;
29044;SDS011;16133;49.486;12.176;2023-01-16T07:36:06;3.58;;;1.58;;
29044;SDS011;16133;49.486;12.176;2023-01-16T07:38:32;6.13;;;1.65;;
29044;SDS011;16133;49.486;12.176;2023-01-16T07:40:57;6.63;;;2.88;;
29044;SDS011;16133;49.486;12.176;2023-01-16T07:43:22;3.72;;;1.77;;
29044;SDS011;16133;49.486;12.176;2023-01-16T07:45:48;4.97;;;2.13;;
29044;SDS011;16133;49.486;12.176;2023-01-16T07:48:18;2.83;;;1.40;;
29044;SDS011;16133;49.486;12.176;2023-01-16T07:50:54;3.45;;;1.35;;
29044;SDS011;16133;49.486;12.176;2023-01-16T07:53:21;4.25;;;1.80;;
29044;SDS011;16133;49.486;12.176;2023-01-16T07:55:48;4.22;;;1.73;;
29044;SDS011;16133;49.486;12.176;2023-01-16T07:58:15;4.40;;;1.85;;
29044;SDS011;16133;49.486;12.176;2023-01-16T08:00:42;3.95;;;1.90;;
29044;SDS011;16133;49.486;12.176;2023-01-16T08:03:07;2.40;;;1.15;;
29044;SDS011;16133;49.486;12.176;2023-01-16T08:05:32;3.38;;;1.70;;
29044;SDS011;16133;49.486;12.176;2023-01-16T08:07:58;4.00;;;1.48;;
29044;SDS011;16133;49.486;12.176;2023-01-16T08:10:23;4.15;;;1.85;;
29044;SDS011;16133;49.486;12.176;2023-01-16T08:12:48;3.55;;;1.48;;
29044;SDS011;16133;49.486;12.176;2023-01-16T08:15:14;5.95;;;2.10;;
29044;SDS011;16133;49.486;12.176;2023-01-16T08:17:39;10.90;;;2.25;;
29044;SDS011;16133;49.486;12.176;2023-01-16T08:20:05;4.07;;;2.10;;
29044;SDS011;16133;49.486;12.176;2023-01-16T08:22:32;5.18;;;2.17;;
29044;SDS011;16133;49.486;12.176;2023-01-16T08:24:57;4.65;;;1.95;;
29044;SDS011;16133;49.486;12.176;2023-01-16T08:27:23;5.18;;;2.90;;
29044;SDS011;16133;49.486;12.176;2023-01-16T08:29:48;5.82;;;2.35;;
29044;SDS011;16133;49.486;12.176;2023-01-16T08:32:13;8.88;;;2.30;;
29044;SDS011;16133;49.486;12.176;2023-01-16T08:34:39;5.90;;;2.13;;
29044;SDS011;16133;49.486;12.176;2023-01-16T08:37:05;6.88;;;2.28;;
29044;SDS011;16133;49.486;12.176;2023-01-16T08:39:32;3.95;;;2.13;;
29044;SDS011;16133;49.486;12.176;2023-01-16T08:41:57;7.97;;;2.10;;
29044;SDS011;16133;49.486;12.176;2023-01-16T08:44:41;4.07;;;1.80;;
29044;SDS011;16133;49.486;12.176;2023-01-16T08:47:25;3.65;;;2.05;;
29044;SDS011;16133;49.486;12.176;2023-01-16T08:50:10;4.25;;;2.33;;
29044;SDS011;16133;49.486;12.176;2023-01-16T08:52:56;7.20;;;1.90;;
29044;SDS011;16133;49.486;12.176;2023-01-16T08:55:21;4.50;;;1.88;;
29044;SDS011;16133;49.486;12.176;2023-01-16T08:57:47;3.67;;;1.77;;
29044;SDS011;16133;49.486;12.176;2023-01-16T09:00:12;3.80;;;1.85;;
29044;SDS011;16133;49.486;12.176;2023-01-16T09:02:38;6.65;;;2.50;;
29044;SDS011;16133;49.486;12.176;2023-01-16T09:05:04;5.05;;;1.80;;
29044;SDS011;16133;49.486;12.176;2023-01-16T09:07:29;2.88;;;1.55;;
29044;SDS011;16133;49.486;12.176;2023-01-16T09:09:55;3.75;;;2.08;;
29044;SDS011;16133;49.486;12.176;2023-01-16T09:12:20;7.90;;;1.70;;
29044;SDS011;16133;49.486;12.176;2023-01-16T09:15:04;5.38;;;1.63;;
29044;SDS011;16133;49.486;12.176;2023-01-16T09:17:30;2.28;;;1.60;;
29044;SDS011;16133;49.486;12.176;2023-01-16T09:19:56;4.63;;;1.92;;
29044;SDS011;16133;49.486;12.176;2023-01-16T09:22:21;4.50;;;1.35;;
29044;SDS011;16133;49.486;12.176;2023-01-16T09:24:47;9.13;;;2.75;;
29044;SDS011;16133;49.486;12.176;2023-01-16T09:27:12;4.75;;;1.30;;
29044;SDS011;16133;49.486;12.176;2023-01-16T09:29:38;5.13;;;2.00;;
29044;SDS011;16133;49.486;12.176;2023-01-16T09:32:04;5.93;;;1.90;;
29044;SDS011;16133;49.486;12.176;2023-01-16T09:34:34;2.88;;;1.30;;
29044;SDS011;16133;49.486;12.176;2023-01-16T09:37:00;2.10;;;1.70;;
29044;SDS011;16133;49.486;12.176;2023-01-16T09:39:26;2.55;;;1.73;;
29044;SDS011;16133;49.486;12.176;2023-01-16T09:42:06;7.70;;;2.25;;
29044;SDS011;16133;49.486;12.176;2023-01-16T09:45:02;4.05;;;1.70;;
29044;SDS011;16133;49.486;12.176;2023-01-16T09:47:32;6.57;;;1.70;;
29044;SDS011;16133;49.486;12.176;2023-01-16T09:50:06;4.00;;;1.65;;
29044;SDS011;16133;49.486;12.176;2023-01-16T09:52:38;5.85;;;1.83;;
29044;SDS011;16133;49.486;12.176;2023-01-16T09:55:33;5.68;;;1.85;;
29044;SDS011;16133;49.486;12.176;2023-01-16T09:58:23;4.60;;;2.10;;
29044;SDS011;16133;49.486;12.176;2023-01-16T10:01:25;11.15;;;2.50;;
29044;SDS011;16133;49.486;12.176;2023-01-16T10:04:09;6.25;;;1.80;;
29044;SDS011;16133;49.486;12.176;2023-01-16T10:06:49;5.57;;;1.80;;
29044;SDS011;16133;49.486;12.176;2023-01-16T10:12:01;2.08;;;1.50;;
29044;SDS011;16133;49.486;12.176;2023-01-16T10:25:29;5.03;;;1.73;;
29044;SDS011;16133;49.486;12.176;2023-01-16T10:33:58;1.75;;;1.10;;
29044;SDS011;16133;49.486;12.176;2023-01-16T10:36:26;3.17;;;1.35;;
29044;SDS011;16133;49.486;12.176;2023-01-16T10:38:56;4.43;;;1.40;;
29044;SDS011;16133;49.486;12.176;2023-01-16T10:41:34;2.97;;;1.55;;
29044;SDS011;16133;49.486;12.176;2023-01-16T10:47:14;3.45;;;1.10;;
29044;SDS011;16133;49.486;12.176;2023-01-16T10:49:59;7.95;;;1.52;;
29044;SDS011;16133;49.486;12.176;2023-01-16T10:52:25;2.90;;;1.20;;
29044;SDS011;16133;49.486;12.176;2023-01-16T10:54:52;6.30;;;1.25;;
29044;SDS011;16133;49.486;12.176;2023-01-16T10:57:20;2.25;;;1.13;;
29044;SDS011;16133;49.486;12.176;2023-01-16T10:59:46;2.33;;;0.98;;
29044;SDS011;16133;49.486;12.176;2023-01-16T11:02:18;2.97;;;0.90;;
29044;SDS011;16133;49.486;12.176;2023-01-16T11:04:48;3.60;;;1.20;;
29044;SDS011;16133;49.486;12.176;2023-01-16T11:07:18;1.83;;;1.00;;
29044;SDS011;16133;49.486;12.176;2023-01-16T11:09:45;1.90;;;1.25;;
29044;SDS011;16133;49.486;12.176;2023-01-16T11:12:15;5.85;;;0.90;;
29044;SDS011;16133;49.486;12.176;2023-01-16T11:15:20;2.33;;;1.05;;
29044;SDS011;16133;49.486;12.176;2023-01-16T11:20:54;4.18;;;1.00;;
29044;SDS011;16133;49.486;12.176;2023-01-16T11:23:33;1.33;;;0.50;;
29044;SDS011;16133;49.486;12.176;2023-01-16T11:26:02;3.35;;;0.70;;
29044;SDS011;16133;49.486;12.176;2023-01-16T11:28:30;1.85;;;0.73;;
29044;SDS011;16133;49.486;12.176;2023-01-16T11:30:59;4.00;;;0.60;;
29044;SDS011;16133;49.486;12.176;2023-01-16T11:33:28;2.53;;;0.80;;
29044;SDS011;16133;49.486;12.176;2023-01-16T11:36:01;3.03;;;0.70;;
29044;SDS011;16133;49.486;12.176;2023-01-16T11:38:31;2.08;;;0.85;;
29044;SDS011;16133;49.486;12.176;2023-01-16T11:41:03;5.32;;;0.68;;
29044;SDS011;16133;49.486;12.176;2023-01-16T11:43:31;2.25;;;0.50;;
29044;SDS011;16133;49.486;12.176;2023-01-16T11:49:11;1.50;;;0.43;;
29044;SDS011;16133;49.486;12.176;2023-01-16T11:51:40;4.53;;;0.50;;
29044;SDS011;16133;49.486;12.176;2023-01-16T11:54:11;6.22;;;0.57;;
29044;SDS011;16133;49.486;12.176;2023-01-16T11:56:49;1.20;;;0.30;;
29044;SDS011;16133;49.486;12.176;2023-01-16T12:11:07;0.85;;;0.38;;
29044;SDS011;16133;49.486;12.176;2023-01-16T12:13:44;1.08;;;0.45;;
29044;SDS011;16133;49.486;12.176;2023-01-16T12:16:40;1.20;;;1.03;;
29044;SDS011;16133;49.486;12.176;2023-01-16T12:25:14;1.50;;;0.50;;
29044;SDS011;16133;49.486;12.176;2023-01-16T12:35:49;1.77;;;0.70;;
29044;SDS011;16133;49.486;12.176;2023-01-16T12:38:37;0.63;;;0.40;;
29044;SDS011;16133;49.486;12.176;2023-01-16T12:41:22;0.77;;;0.40;;
29044;SDS011;16133;49.486;12.176;2023-01-16T12:55:29;2.53;;;0.80;;
29044;SDS011;16133;49.486;12.176;2023-01-16T13:01:28;2.28;;;0.60;;
29044;SDS011;16133;49.486;12.176;2023-01-16T13:06:44;1.23;;;0.40;;
29044;SDS011;16133;49.486;12.176;2023-01-16T13:09:21;2.15;;;0.85;;
29044;SDS011;16133;49.486;12.176;2023-01-16T13:12:14;1.83;;;0.50;;
29044;SDS011;16133;49.486;12.176;2023-01-16T13:15:01;2.38;;;0.50;;
29044;SDS011;16133;49.486;12.176;2023-01-16T13:17:56;2.42;;;0.40;;
29044;SDS011;16133;49.486;12.176;2023-01-16T13:20:41;2.33;;;0.45;;
29044;SDS011;16133;49.486;12.176;2023-01-16T13:26:29;1.23;;;0.40;;
29044;SDS011;16133;49.486;12.176;2023-01-16T13:29:07;2.40;;;0.70;;
29044;SDS011;16133;49.486;12.176;2023-01-16T13:31:52;2.40;;;0.55;;
29044;SDS011;16133;49.486;12.176;2023-01-16T13:34:29;1.90;;;0.40;;
29044;SDS011;16133;49.486;12.176;2023-01-16T13:37:13;0.82;;;0.30;;
29044;SDS011;16133;49.486;12.176;2023-01-16T13:42:23;1.17;;;0.50;;
29044;SDS011;16133;49.486;12.176;2023-01-16T13:44:53;2.28;;;0.45;;
29044;SDS011;16133;49.486;12.176;2023-01-16T13:47:41;1.50;;;0.28;;
29044;SDS011;16133;49.486;12.176;2023-01-16T13:50:24;1.63;;;0.50;;
29044;SDS011;16133;49.486;12.176;2023-01-16T13:52:56;0.50;;;0.32;;
29044;SDS011;16133;49.486;12.176;2023-01-16T13:57:54;1.55;;;0.50;;
29044;SDS011;16133;49.486;12.176;2023-01-16T14:00:21;0.65;;;0.40;;
29044;SDS011;16133;49.486;12.176;2023-01-16T14:03:34;2.40;;;0.70;;
29044;SDS011;16133;49.486;12.176;2023-01-16T14:08:25;1.05;;;0.60;;
29044;SDS011;16133;49.486;12.176;2023-01-16T14:14:15;6.75;;;2.35;;
29044;SDS011;16133;49.486;12.176;2023-01-16T14:17:12;11.90;;;2.35;;
29044;SDS011;16133;49.486;12.176;2023-01-16T14:19:41;6.43;;;2.08;;
29044;SDS011;16133;49.486;12.176;2023-01-16T14:22:11;6.30;;;2.08;;
29044;SDS011;16133;49.486;12.176;2023-01-16T14:24:43;5.20;;;1.67;;
29044;SDS011;16133;49.486;12.176;2023-01-16T14:27:16;6.10;;;1.30;;
29044;SDS011;16133;49.486;12.176;2023-01-16T14:32:18;3.88;;;1.40;;
29044;SDS011;16133;49.486;12.176;2023-01-16T14:39:50;4.80;;;2.83;;
29044;SDS011;16133;49.486;12.176;2023-01-16T14:42:26;5.20;;;3.67;;
29044;SDS011;16133;49.486;12.176;2023-01-16T14:45:25;5.00;;;2.83;;
29044;SDS011;16133;49.486;12.176;2023-01-16T14:48:29;3.05;;;2.17;;
29044;SDS011;16133;49.486;12.176;2023-01-16T14:51:28;2.63;;;1.75;;
29044;SDS011;16133;49.486;12.176;2023-01-16T14:54:23;4.82;;;2.63;;
29044;SDS011;16133;49.486;12.176;2023-01-16T14:57:16;5.82;;;2.28;;
29044;SDS011;16133;49.486;12.176;2023-01-16T14:59:58;5.18;;;2.53;;
29044;SDS011;16133;49.486;12.176;2023-01-16T15:07:37;2.03;;;0.93;;
29044;SDS011;16133;49.486;12.176;2023-01-16T15:10:18;3.83;;;1.30;;
29044;SDS011;16133;49.486;12.176;2023-01-16T15:12:49;1.67;;;0.85;;
29044;SDS011;16133;49.486;12.176;2023-01-16T15:15:24;2.58;;;0.75;;
29044;SDS011;16133;49.486;12.176;2023-01-16T15:17:54;0.93;;;0.60;;
29044;SDS011;16133;49.486;12.176;2023-01-16T15:20:41;0.90;;;0.73;;
29044;SDS011;16133;49.486;12.176;2023-01-16T15:23:28;1.55;;;0.50;;
29044;SDS011;16133;49.486;12.176;2023-01-16T15:31:52;6.55;;;1.75;;
29044;SDS011;16133;49.486;12.176;2023-01-16T15:34:01;3.47;;;0.70;;
29044;SDS011;16133;49.486;12.176;2023-01-16T15:36:40;1.02;;;0.82;;
29044;SDS011;16133;49.486;12.176;2023-01-16T15:39:26;2.63;;;1.25;;
29044;SDS011;16133;49.486;12.176;2023-01-16T15:44:56;1.45;;;0.80;;
29044;SDS011;16133;49.486;12.176;2023-01-16T15:53:12;1.45;;;1.02;;
29044;SDS011;16133;49.486;12.176;2023-01-16T15:55:40;1.90;;;1.10;;
29044;SDS011;16133;49.486;12.176;2023-01-16T15:58:11;2.17;;;1.00;;
29044;SDS011;16133;49.486;12.176;2023-01-16T16:00:40;3.75;;;1.60;;
29044;SDS011;16133;49.486;12.176;2023-01-16T16:03:15;3.03;;;1.70;;
29044;SDS011;16133;49.486;12.176;2023-01-16T16:05:46;6.72;;;2.75;;
29044;SDS011;16133;49.486;12.176;2023-01-16T16:08:21;6.13;;;3.30;;
29044;SDS011;16133;49.486;12.176;2023-01-16T16:10:48;6.88;;;3.17;;
29044;SDS011;16133;49.486;12.176;2023-01-16T16:13:35;9.38;;;3.83;;
29044;SDS011;16133;49.486;12.176;2023-01-16T16:16:03;9.13;;;4.60;;
29044;SDS011;16133;49.486;12.176;2023-01-16T16:18:58;14.32;;;5.43;;
29044;SDS011;16133;49.486;12.176;2023-01-16T16:21:25;28.10;;;9.52;;
29044;SDS011;16133;49.486;12.176;2023-01-16T16:24:01;27.83;;;9.10;;
29044;SDS011;16133;49.486;12.176;2023-01-16T16:26:29;39.50;;;11.93;;
29044;SDS011;16133;49.486;12.176;2023-01-16T16:28:59;35.53;;;14.13;;
29044;SDS011;16133;49.486;12.176;2023-01-16T16:31:29;36.45;;;11.95;;
29044;SDS011;16133;49.486;12.176;2023-01-16T16:36:54;18.50;;;6.78;;
29044;SDS011;16133;49.486;12.176;2023-01-16T16:41:50;12.35;;;5.38;;
29044;SDS011;16133;49.486;12.176;2023-01-16T16:44:35;15.15;;;6.60;;
29044;SDS011;16133;49.486;12.176;2023-01-16T16:47:03;13.20;;;6.47;;
29044;SDS011;16133;49.486;12.176;2023-01-16T16:49:46;17.50;;;7.97;;
29044;SDS011;16133;49.486;12.176;2023-01-16T16:52:45;9.82;;;5.97;;
29044;SDS011;16133;49.486;12.176;2023-01-16T17:00:41;3.40;;;2.08;;
29044;SDS011;16133;49.486;12.176;2023-01-16T17:03:11;4.82;;;2.95;;
29044;SDS011;16133;49.486;12.176;2023-01-16T17:05:42;5.38;;;2.80;;
29044;SDS011;16133;49.486;12.176;2023-01-16T17:08:13;8.00;;;3.60;;
29044;SDS011;16133;49.486;12.176;2023-01-16T17:10:41;5.53;;;3.58;;
29044;SDS011;16133;49.486;12.176;2023-01-16T17:13:08;15.93;;;8.18;;
29044;SDS011;16133;49.486;12.176;2023-01-16T17:15:35;20.65;;;9.93;;
29044;SDS011;16133;49.486;12.176;2023-01-16T17:18:01;19.10;;;9.23;;
29044;SDS011;16133;49.486;12.176;2023-01-16T17:20:27;13.35;;;6.60;;
29044;SDS011;16133;49.486;12.176;2023-01-16T17:22:52;14.32;;;7.22;;
29044;SDS011;16133;49.486;12.176;2023-01-16T17:25:18;19.75;;;8.27;;
29044;SDS011;16133;49.486;12.176;2023-01-16T17:27:47;24.55;;;11.00;;
29044;SDS011;16133;49.486;12.176;2023-01-16T17:30:14;22.38;;;9.45;;
29044;SDS011;16133;49.486;12.176;2023-01-16T17:32:40;57.05;;;24.52;;
29044;SDS011;16133;49.486;12.176;2023-01-16T17:35:16;57.55;;;24.35;;
29044;SDS011;16133;49.486;12.176;2023-01-16T17:37:41;60.85;;;25.15;;
29044;SDS011;16133;49.486;12.176;2023-01-16T17:40:07;56.53;;;24.40;;
29044;SDS011;16133;49.486;12.176;2023-01-16T17:42:34;37.95;;;17.30;;
29044;SDS011;16133;49.486;12.176;2023-01-16T17:45:21;21.90;;;9.27;;
29044;SDS011;16133;49.486;12.176;2023-01-16T17:48:18;15.02;;;6.55;;
29044;SDS011;16133;49.486;12.176;2023-01-16T17:50:49;7.88;;;4.18;;
29044;SDS011;16133;49.486;12.176;2023-01-16T17:53:17;14.73;;;5.95;;